createdAt,value
2023-05-10T00:02:03.997Z,48.71
2023-05-10T00:05:06.222Z,47.96
2023-05-10T00:08:08.163Z,48.20
2023-05-10T00:11:10.041Z,47.93
2023-05-10T00:14:12.247Z,48.65
2023-05-10T00:17:14.074Z,48.32
2023-05-10T00:20:16.454Z,49.10
2023-05-10T00:23:18.588Z,49.11
2023-05-10T00:26:20.993Z,49.66
2023-05-10T00:29:25.185Z,49.88
2023-05-10T00:32:27.215Z,50.42
2023-05-10T00:35:29.306Z,50.09
2023-05-10T00:38:31.278Z,50.33
2023-05-10T00:41:33.775Z,50.58
2023-05-10T00:44:35.666Z,50.75
2023-05-10T00:47:37.683Z,50.85
2023-05-10T00:50:41.088Z,51.01
2023-05-10T00:53:45.095Z,53.24
2023-05-10T00:56:49.865Z,53.58
2023-05-10T00:59:51.811Z,51.59
2023-05-10T01:02:54.489Z,52.50
2023-05-10T01:05:56.509Z,53.02
2023-05-10T01:08:58.377Z,52.50
2023-05-10T01:12:00.546Z,51.92
2023-05-10T01:15:02.690Z,52.16
2023-05-10T01:18:04.642Z,53.64
2023-05-10T01:21:10.821Z,52.18
2023-05-10T01:24:12.628Z,52.07
2023-05-10T01:27:14.476Z,52.10
2023-05-10T01:30:35.243Z,51.57
2023-05-10T01:33:40.717Z,54.15
2023-05-10T01:36:54.963Z,52.41
2023-05-10T01:39:59.695Z,52.51
2023-05-10T01:43:02.716Z,52.33
2023-05-10T01:46:11.986Z,52.92
2023-05-10T01:49:19.632Z,52.90
2023-05-10T01:52:23.923Z,54.53
2023-05-10T01:55:27.470Z,52.01
2023-05-10T01:58:33.224Z,51.54
2023-05-10T02:01:35.199Z,51.71
2023-05-10T02:04:37.187Z,51.85
2023-05-10T02:07:39.136Z,52.02
2023-05-10T02:10:41.185Z,52.46
2023-05-10T02:13:43.833Z,52.62
2023-05-10T02:16:45.763Z,51.49
2023-05-10T02:19:47.588Z,51.79
2023-05-10T02:22:49.993Z,51.74
2023-05-10T02:25:54.199Z,51.25
2023-05-10T02:28:56.157Z,51.09
2023-05-10T02:31:58.132Z,51.62
2023-05-10T02:35:00.078Z,51.04
2023-05-10T02:38:02.121Z,51.47
2023-05-10T02:41:04.151Z,50.72
2023-05-10T02:44:06.473Z,51.54
2023-05-10T02:47:08.381Z,51.43
2023-05-10T02:50:10.641Z,50.61
2023-05-10T02:53:13.129Z,50.84
2023-05-10T02:56:16.466Z,51.37
2023-05-10T02:59:18.454Z,50.83
2023-05-10T03:02:21.178Z,49.49
2023-05-10T03:05:23.103Z,49.52
2023-05-10T03:08:25.133Z,50.12
2023-05-10T03:11:35.891Z,50.19
2023-05-10T03:14:40.756Z,49.76
2023-05-10T03:18:12.231Z,50.15
2023-05-10T03:21:16.661Z,50.36
2023-05-10T03:24:21.074Z,50.42
2023-05-10T03:27:23.403Z,50.39
2023-05-10T03:30:25.448Z,50.86
2023-05-10T03:33:27.415Z,49.83
2023-05-10T03:36:29.329Z,50.29
2023-05-10T03:39:31.166Z,50.26
2023-05-10T03:42:33.274Z,50.45
2023-05-10T03:45:35.963Z,50.74
2023-05-10T03:48:37.958Z,51.09
2023-05-10T03:51:39.802Z,48.97
2023-05-10T03:54:41.902Z,49.18
2023-05-10T03:57:43.888Z,49.95
2023-05-10T04:00:46.157Z,48.42
2023-05-10T04:03:50.254Z,50.09
2023-05-10T04:06:52.182Z,48.85
2023-05-10T04:09:54.057Z,48.69
2023-05-10T04:12:56.000Z,48.63
2023-05-10T04:15:58.098Z,48.46
2023-05-10T04:19:00.756Z,48.03
2023-05-10T04:22:03.187Z,48.52
2023-05-10T04:25:05.667Z,48.58
2023-05-10T04:28:07.516Z,48.36
2023-05-10T04:31:09.987Z,48.75
2023-05-10T04:34:11.905Z,48.78
2023-05-10T04:37:13.805Z,48.96
2023-05-10T04:40:15.924Z,50.53
2023-05-10T04:43:18.124Z,48.70
2023-05-10T04:46:19.946Z,48.88
2023-05-10T04:49:21.993Z,50.02
2023-05-10T04:52:23.971Z,48.82
2023-05-10T04:55:26.083Z,45.98
2023-05-10T04:58:28.421Z,42.95
2023-05-10T05:01:30.469Z,42.28
2023-05-10T05:04:32.805Z,41.06
2023-05-10T05:07:34.767Z,40.55
2023-05-10T05:10:36.623Z,41.27
2023-05-10T05:13:38.612Z,41.74
2023-05-10T05:16:40.717Z,42.57
2023-05-10T05:19:42.744Z,43.12
2023-05-10T05:22:44.585Z,43.56
2023-05-10T05:25:46.552Z,43.07
2023-05-10T05:28:49.766Z,43.71
2023-05-10T05:31:53.419Z,43.25
2023-05-10T05:34:56.640Z,44.58
2023-05-10T05:37:58.613Z,44.90
2023-05-10T05:41:00.414Z,43.80
2023-05-10T05:44:02.471Z,42.95
2023-05-10T05:47:04.326Z,41.76
2023-05-10T05:50:09.063Z,42.29
2023-05-10T05:53:10.888Z,40.11
2023-05-10T05:56:12.766Z,38.47
2023-05-10T05:59:14.950Z,38.37
2023-05-10T06:02:17.127Z,39.68
2023-05-10T06:05:19.274Z,39.41
2023-05-10T06:08:23.943Z,39.15
2023-05-10T06:11:26.458Z,39.18
2023-05-10T06:14:28.825Z,36.77
2023-05-10T06:17:30.912Z,37.57
2023-05-10T06:20:32.972Z,36.85
2023-05-10T06:23:34.901Z,36.30
2023-05-10T06:26:36.964Z,35.71
2023-05-10T06:29:38.907Z,36.22
2023-05-10T06:32:41.060Z,35.59
2023-05-10T06:35:43.980Z,37.79
2023-05-10T06:38:45.896Z,40.74
2023-05-10T06:41:47.838Z,38.58
2023-05-10T06:44:49.676Z,37.50
2023-05-10T06:47:51.682Z,36.25
2023-05-10T06:50:53.651Z,35.69
2023-05-10T06:53:55.542Z,35.59
2023-05-10T06:56:57.503Z,35.07
2023-05-10T06:59:59.944Z,36.58
2023-05-10T07:03:05.006Z,35.63
2023-05-10T07:06:21.719Z,36.60
2023-05-10T07:09:27.771Z,34.23
2023-05-10T07:12:29.724Z,35.09
2023-05-10T07:15:31.697Z,34.01
2023-05-10T07:18:33.635Z,32.59
2023-05-10T07:21:36.518Z,31.37
2023-05-10T07:24:38.770Z,31.41
2023-05-10T07:27:40.917Z,33.03
2023-05-10T07:30:43.098Z,33.77
2023-05-10T07:33:45.102Z,35.62
2023-05-10T07:36:46.983Z,34.88
2023-05-10T07:39:48.932Z,31.95
2023-05-10T07:42:50.871Z,31.23
2023-05-10T07:45:55.440Z,31.51
2023-05-10T07:48:58.232Z,31.43
2023-05-10T07:52:00.122Z,32.22
2023-05-10T07:55:05.549Z,33.11
2023-05-10T07:58:07.367Z,32.16
2023-05-10T08:01:09.639Z,33.34
2023-05-10T08:04:12.747Z,34.52
2023-05-10T08:07:14.885Z,32.72
2023-05-10T08:10:18.327Z,32.50
2023-05-10T08:13:20.391Z,33.47
2023-05-10T08:16:22.407Z,35.62
2023-05-10T08:19:25.626Z,34.05
2023-05-10T08:22:34.959Z,35.34
2023-05-10T08:25:37.098Z,33.89
2023-05-10T08:28:39.392Z,33.99
2023-05-10T08:31:41.364Z,32.27
2023-05-10T08:34:43.739Z,33.09
2023-05-10T08:37:46.399Z,31.30
2023-05-10T08:40:48.309Z,31.42
2023-05-10T08:43:51.078Z,30.41
2023-05-10T08:46:53.217Z,31.91
2023-05-10T08:49:55.077Z,32.80
2023-05-10T08:52:57.653Z,34.23
2023-05-10T08:55:59.558Z,34.70
2023-05-10T08:59:01.499Z,34.95
2023-05-10T09:02:03.708Z,32.06
2023-05-10T09:05:06.533Z,31.05
2023-05-10T09:08:09.203Z,30.62
2023-05-10T09:11:11.606Z,28.53
2023-05-10T09:14:13.686Z,29.86
2023-05-10T09:17:16.128Z,28.12
2023-05-10T09:20:24.286Z,27.00
2023-05-10T09:23:32.408Z,26.25
2023-05-10T09:26:34.826Z,27.99
2023-05-10T09:29:40.682Z,29.87
2023-05-10T09:32:44.337Z,29.75
2023-05-10T09:35:46.795Z,26.70
2023-05-10T09:38:49.629Z,26.22
2023-05-10T09:41:52.044Z,25.58
2023-05-10T09:44:54.094Z,25.72
2023-05-10T09:47:56.686Z,27.23
2023-05-10T09:50:59.383Z,28.63
2023-05-10T09:54:14.623Z,29.68
2023-05-10T09:57:20.100Z,29.56
2023-05-10T10:00:22.053Z,26.50
2023-05-10T10:03:30.292Z,28.22
2023-05-10T10:06:46.115Z,26.03
2023-05-10T10:09:48.391Z,29.85
2023-05-10T10:12:50.470Z,28.33
2023-05-10T10:15:53.440Z,28.59
2023-05-10T10:18:55.526Z,28.35
2023-05-10T10:21:58.251Z,25.65
2023-05-10T10:25:00.893Z,23.59
2023-05-10T10:28:07.602Z,24.12
2023-05-10T10:31:30.236Z,25.79
2023-05-10T10:34:32.860Z,26.04
2023-05-10T10:37:47.877Z,25.02
2023-05-10T10:40:50.414Z,22.95
2023-05-10T10:44:24.539Z,22.69
2023-05-10T10:47:31.079Z,23.36
2023-05-10T10:50:33.105Z,25.94
2023-05-10T10:53:35.774Z,25.35
2023-05-10T10:56:37.925Z,26.20
2023-05-10T10:59:45.196Z,27.03
2023-05-10T11:02:49.961Z,26.97
2023-05-10T11:06:01.416Z,27.62
2023-05-10T11:09:10.213Z,23.91
2023-05-10T11:12:12.628Z,26.51
2023-05-10T11:15:14.961Z,26.74
2023-05-10T11:21:18.705Z,25.98
2023-05-10T11:24:21.604Z,29.22
2023-05-10T11:27:26.381Z,29.43
2023-05-10T11:30:28.461Z,31.05
2023-05-10T11:33:30.750Z,30.86
2023-05-10T11:36:39.550Z,31.75
2023-05-10T11:39:49.836Z,29.70
2023-05-10T11:42:51.914Z,30.21
2023-05-10T11:45:54.416Z,31.92
2023-05-10T11:49:02.538Z,29.79
2023-05-10T11:52:05.364Z,28.18
2023-05-10T11:55:10.500Z,29.00
2023-05-10T11:58:12.616Z,29.14
2023-05-10T12:01:14.582Z,31.79
2023-05-10T12:04:16.986Z,29.63
2023-05-10T12:07:19.815Z,30.56
2023-05-10T12:10:29.148Z,28.90
2023-05-10T12:13:31.293Z,31.20
2023-05-10T12:16:33.700Z,30.15
2023-05-10T12:19:39.757Z,30.73
2023-05-10T12:22:42.166Z,30.81
2023-05-10T12:25:44.349Z,30.44
2023-05-10T12:28:46.515Z,31.26
2023-05-10T12:31:54.847Z,30.74
2023-05-10T12:34:56.855Z,29.07
2023-05-10T12:37:58.880Z,29.39
2023-05-10T12:41:01.393Z,30.55
2023-05-10T12:44:03.259Z,30.54
2023-05-10T12:47:09.601Z,30.28
2023-05-10T12:50:12.383Z,30.02
2023-05-10T12:53:20.524Z,29.18
2023-05-10T12:56:22.594Z,29.57
2023-05-10T12:59:24.464Z,30.94
2023-05-10T13:02:26.470Z,30.10
2023-05-10T13:05:31.870Z,30.56
2023-05-10T13:08:34.786Z,29.63
2023-05-10T13:11:37.734Z,28.67
2023-05-10T13:14:41.762Z,28.20
2023-05-10T13:17:46.925Z,27.81
2023-05-10T13:20:50.647Z,28.42
2023-05-10T13:23:55.458Z,28.32
2023-05-10T13:26:57.599Z,27.70
2023-05-10T13:30:00.580Z,28.49
2023-05-10T13:33:02.793Z,27.89
2023-05-10T13:36:04.865Z,27.02
2023-05-10T13:39:12.526Z,27.54
2023-05-10T13:42:14.462Z,27.92
2023-05-10T13:45:20.187Z,29.39
2023-05-10T13:48:25.299Z,28.81
2023-05-10T13:51:30.373Z,28.42
2023-05-10T13:54:32.890Z,27.85
2023-05-10T13:57:36.958Z,27.03
2023-05-10T14:00:39.317Z,27.27
2023-05-10T14:03:41.452Z,27.32
2023-05-10T14:06:43.610Z,26.50
2023-05-10T14:09:45.962Z,27.65
2023-05-10T14:12:53.745Z,28.16
2023-05-10T14:15:55.960Z,28.17
2023-05-10T14:18:58.750Z,27.93
2023-05-10T14:22:01.114Z,28.29
2023-05-10T14:25:03.385Z,28.29
2023-05-10T14:28:10.200Z,27.68
2023-05-10T14:31:12.147Z,28.23
2023-05-10T14:34:16.377Z,27.85
2023-05-10T14:37:18.227Z,27.96
2023-05-10T14:40:20.092Z,28.41
2023-05-10T14:43:22.002Z,27.24
2023-05-10T14:46:23.952Z,27.17
2023-05-10T14:49:27.066Z,27.87
2023-05-10T14:52:29.198Z,28.00
2023-05-10T14:55:33.382Z,29.44
2023-05-10T14:58:35.285Z,28.98
2023-05-10T15:01:38.803Z,29.32
2023-05-10T15:04:41.347Z,29.63
2023-05-10T15:07:44.869Z,29.73
2023-05-10T15:10:46.987Z,30.79
2023-05-10T15:13:48.870Z,29.71
2023-05-10T15:16:50.826Z,29.45
2023-05-10T15:19:52.772Z,29.35
2023-05-10T15:22:54.967Z,29.15
2023-05-10T15:25:56.970Z,30.00
2023-05-10T15:29:01.145Z,29.44
2023-05-10T15:32:03.920Z,28.90
2023-05-10T15:35:06.066Z,29.02
2023-05-10T15:38:08.306Z,28.49
2023-05-10T15:41:10.440Z,30.81
2023-05-10T15:44:12.278Z,29.77
2023-05-10T15:47:14.339Z,30.31
2023-05-10T15:50:17.458Z,30.10
2023-05-10T15:53:19.431Z,29.29
2023-05-10T15:56:21.403Z,30.28
2023-05-10T15:59:23.350Z,30.34
2023-05-10T16:02:25.494Z,30.08
2023-05-10T16:05:32.201Z,29.06
2023-05-10T16:08:34.320Z,29.19
2023-05-10T16:11:36.409Z,29.24
2023-05-10T16:14:38.330Z,29.00
2023-05-10T16:17:40.249Z,29.43
2023-05-10T16:20:42.218Z,29.43
2023-05-10T16:23:46.736Z,29.87
2023-05-10T16:26:48.698Z,29.90
2023-05-10T16:29:50.739Z,29.35
2023-05-10T16:32:52.919Z,30.01
2023-05-10T16:35:54.855Z,30.00
2023-05-10T16:38:56.899Z,29.34
2023-05-10T16:41:58.787Z,30.72
2023-05-10T16:45:07.564Z,30.73
2023-05-10T16:48:09.547Z,31.68
2023-05-10T16:51:11.561Z,32.27
2023-05-10T16:54:13.551Z,32.82
2023-05-10T16:57:15.452Z,31.76
2023-05-10T17:00:17.510Z,31.70
2023-05-10T17:03:19.600Z,32.47
2023-05-10T17:06:21.769Z,34.94
2023-05-10T17:09:23.714Z,34.00
2023-05-10T17:12:26.115Z,34.08
2023-05-10T17:15:28.162Z,34.50
2023-05-10T17:18:30.240Z,34.70
2023-05-10T17:21:32.185Z,34.27
2023-05-10T17:24:34.202Z,34.81
2023-05-10T17:27:36.301Z,33.74
2023-05-10T17:30:38.317Z,35.25
2023-05-10T17:33:40.349Z,34.59
2023-05-10T17:36:42.558Z,34.23
2023-05-10T17:39:44.521Z,35.53
2023-05-10T17:42:46.504Z,35.34
2023-05-10T17:45:49.539Z,35.52
2023-05-10T17:48:51.457Z,35.73
2023-05-10T17:51:53.498Z,36.38
2023-05-10T17:54:55.444Z,35.96
2023-05-10T17:57:59.547Z,35.33
2023-05-10T18:01:01.657Z,35.83
2023-05-10T18:04:04.663Z,35.76
2023-05-10T18:07:06.853Z,35.50
2023-05-10T18:10:09.099Z,35.95
2023-05-10T18:13:11.297Z,37.04
2023-05-10T18:16:13.795Z,36.13
2023-05-10T18:19:16.018Z,36.48
2023-05-10T18:22:17.862Z,36.17
2023-05-10T18:25:20.156Z,35.50
2023-05-10T18:28:22.282Z,35.32
2023-05-10T18:31:24.790Z,36.32
2023-05-10T18:34:26.918Z,36.01
2023-05-10T18:37:28.836Z,35.43
2023-05-10T18:40:30.889Z,34.87
2023-05-10T18:43:35.904Z,35.39
2023-05-10T18:46:39.380Z,35.99
2023-05-10T18:49:41.391Z,35.83
2023-05-10T18:52:43.807Z,34.65
2023-05-10T18:55:46.630Z,35.17
2023-05-10T18:58:48.692Z,35.79
2023-05-10T19:01:51.282Z,35.10
2023-05-10T19:04:53.553Z,34.48
2023-05-10T19:07:58.565Z,34.14
2023-05-10T19:11:00.763Z,34.66
2023-05-10T19:14:02.849Z,33.79
2023-05-10T19:17:07.132Z,34.29
2023-05-10T19:20:11.535Z,34.31
2023-05-10T19:23:15.897Z,35.00
2023-05-10T19:26:17.920Z,33.48
2023-05-10T19:29:19.905Z,34.58
2023-05-10T19:32:23.147Z,35.55
2023-05-10T19:35:25.019Z,35.77
2023-05-10T19:38:27.322Z,36.31
2023-05-10T19:41:29.175Z,36.43
2023-05-10T19:44:31.239Z,35.71
2023-05-10T19:47:35.254Z,37.20
2023-05-10T19:50:38.500Z,37.37
2023-05-10T19:53:44.291Z,36.52
2023-05-10T19:56:46.151Z,36.99
2023-05-10T19:59:47.985Z,36.53
2023-05-10T20:02:50.148Z,37.31
2023-05-10T20:05:52.226Z,36.98
2023-05-10T20:08:54.218Z,35.66
2023-05-10T20:11:56.051Z,36.27
2023-05-10T20:14:58.244Z,37.61
2023-05-10T20:18:00.196Z,37.71
2023-05-10T20:21:02.404Z,38.21
2023-05-10T20:24:04.480Z,37.26
2023-05-10T20:27:06.613Z,37.43
2023-05-10T20:30:09.670Z,36.92
2023-05-10T20:33:11.567Z,36.27
2023-05-10T20:36:14.120Z,38.15
2023-05-10T20:39:16.302Z,37.76
2023-05-10T20:42:18.426Z,36.13
2023-05-10T20:45:20.406Z,35.52
2023-05-10T20:48:22.417Z,37.25
2023-05-10T20:51:24.352Z,37.41
2023-05-10T20:54:26.416Z,37.11
2023-05-10T20:57:28.333Z,36.91
2023-05-10T21:00:30.363Z,38.10
2023-05-10T21:03:32.484Z,36.99
2023-05-10T21:06:34.469Z,38.09
2023-05-10T21:09:36.312Z,37.09
2023-05-10T21:12:38.763Z,37.47
2023-05-10T21:15:40.895Z,37.28
2023-05-10T21:18:43.338Z,37.56
2023-05-10T21:21:45.206Z,37.41
2023-05-10T21:24:47.113Z,37.70
2023-05-10T21:27:49.207Z,37.40
2023-05-10T21:30:51.488Z,37.35
2023-05-10T21:33:53.357Z,36.68
2023-05-10T21:36:55.282Z,37.43
2023-05-10T21:39:57.264Z,37.37
2023-05-10T21:42:59.182Z,37.82
2023-05-10T21:46:01.441Z,37.64
2023-05-10T21:49:03.483Z,37.71
2023-05-10T21:52:05.692Z,38.00
2023-05-10T21:55:08.717Z,37.85
2023-05-10T21:58:11.059Z,37.75
2023-05-10T22:01:14.766Z,37.41
2023-05-10T22:04:16.739Z,38.16
2023-05-10T22:07:18.604Z,36.75
2023-05-10T22:10:20.801Z,37.57
2023-05-10T22:13:23.255Z,38.11
2023-05-10T22:16:25.274Z,38.53
2023-05-10T22:19:27.309Z,38.66
2023-05-10T22:22:29.223Z,37.42
2023-05-10T22:25:31.716Z,37.65
2023-05-10T22:28:33.724Z,36.90
2023-05-10T22:31:36.142Z,35.75
2023-05-10T22:34:38.169Z,36.15
2023-05-10T22:37:40.035Z,36.46
2023-05-10T22:40:42.435Z,36.78
2023-05-10T22:43:45.677Z,36.35
2023-05-10T22:46:47.759Z,36.01
2023-05-10T22:49:49.658Z,35.80
2023-05-10T22:52:51.625Z,36.66
2023-05-10T22:55:53.638Z,36.41
2023-05-10T22:58:55.621Z,37.17
2023-05-10T23:01:57.575Z,36.27
2023-05-10T23:04:59.611Z,35.78
2023-05-10T23:08:01.556Z,37.36
2023-05-10T23:11:03.442Z,36.92
2023-05-10T23:14:05.375Z,37.85
2023-05-10T23:17:07.566Z,38.36
2023-05-10T23:20:10.302Z,37.43
2023-05-10T23:23:12.274Z,36.76
2023-05-10T23:26:20.472Z,35.73
2023-05-10T23:29:23.981Z,37.10
2023-05-10T23:32:28.474Z,37.11
2023-05-10T23:35:30.609Z,36.72
2023-05-10T23:38:32.594Z,37.43
2023-05-10T23:41:34.618Z,37.31
2023-05-10T23:44:36.495Z,37.52
2023-05-10T23:47:38.397Z,39.21
2023-05-10T23:50:44.194Z,40.36
2023-05-10T23:53:46.213Z,40.20
2023-05-10T23:56:50.787Z,39.82
2023-05-10T23:59:52.737Z,40.00
